Apollo Beach, Florida
Current Conditions -  °F | °C
As of 8:58 PM on Wednesday 26 Nov 2014 (Local Time) from KMCF Reporting Station
Clear Clear  
Wind Chill: 53°   Ceiling: Unl
Heat Index: 53°   Visibility: 10mi
Dew Point: 42°   Wind: 5mph
Humidity: 68%   Direction: 80°E
Pressure: 30.23"   Gusts: NA
Location:  27.77°N, 82.39°W
Report Text: KMCF 270158Z AUTO 08004KT 10SM CLR 11/06 A3023 RMK AO2 SLP240 T01140056
Loading
Personal Weather Stations






























Interactive Weather Map New forecast layout! Learn more

10-Day Weather Forecast

Advertisements
Track Severe Weather on mobile